sensor_id;sensor_type;location;lat;lon;timestamp;P1;durP1;ratioP1;P2;durP2;ratioP2
21402;SDS011;10862;51.886;17.078;2023-12-20T00:01:21;8.48;;;7.57;;
21402;SDS011;10862;51.886;17.078;2023-12-20T00:03:47;8.20;;;7.28;;
21402;SDS011;10862;51.886;17.078;2023-12-20T00:06:13;7.53;;;6.82;;
21402;SDS011;10862;51.886;17.078;2023-12-20T00:08:39;7.97;;;7.18;;
21402;SDS011;10862;51.886;17.078;2023-12-20T00:11:04;7.78;;;7.07;;
21402;SDS011;10862;51.886;17.078;2023-12-20T00:13:30;8.95;;;8.15;;
21402;SDS011;10862;51.886;17.078;2023-12-20T00:15:56;8.75;;;7.70;;
21402;SDS011;10862;51.886;17.078;2023-12-20T00:18:21;8.63;;;7.82;;
21402;SDS011;10862;51.886;17.078;2023-12-20T00:20:47;7.68;;;6.90;;
21402;SDS011;10862;51.886;17.078;2023-12-20T00:23:13;8.05;;;7.35;;
21402;SDS011;10862;51.886;17.078;2023-12-20T00:25:39;8.68;;;7.90;;
21402;SDS011;10862;51.886;17.078;2023-12-20T00:28:04;7.47;;;6.82;;
21402;SDS011;10862;51.886;17.078;2023-12-20T00:30:30;8.95;;;8.05;;
21402;SDS011;10862;51.886;17.078;2023-12-20T00:32:55;8.95;;;8.10;;
21402;SDS011;10862;51.886;17.078;2023-12-20T00:35:21;9.60;;;7.10;;
21402;SDS011;10862;51.886;17.078;2023-12-20T00:37:47;8.02;;;7.32;;
21402;SDS011;10862;51.886;17.078;2023-12-20T00:40:12;7.82;;;7.13;;
21402;SDS011;10862;51.886;17.078;2023-12-20T00:42:38;7.82;;;7.20;;
21402;SDS011;10862;51.886;17.078;2023-12-20T00:45:04;6.70;;;6.20;;
21402;SDS011;10862;51.886;17.078;2023-12-20T00:47:33;7.00;;;6.35;;
21402;SDS011;10862;51.886;17.078;2023-12-20T00:49:58;7.03;;;6.43;;
21402;SDS011;10862;51.886;17.078;2023-12-20T00:52:24;7.05;;;6.45;;
21402;SDS011;10862;51.886;17.078;2023-12-20T00:54:50;8.07;;;7.28;;
21402;SDS011;10862;51.886;17.078;2023-12-20T00:57:16;8.23;;;7.53;;
21402;SDS011;10862;51.886;17.078;2023-12-20T00:59:41;8.48;;;7.88;;
21402;SDS011;10862;51.886;17.078;2023-12-20T01:02:07;8.45;;;7.70;;
21402;SDS011;10862;51.886;17.078;2023-12-20T01:04:33;8.18;;;7.57;;
21402;SDS011;10862;51.886;17.078;2023-12-20T01:06:59;9.23;;;8.55;;
21402;SDS011;10862;51.886;17.078;2023-12-20T01:09:25;8.23;;;7.40;;
21402;SDS011;10862;51.886;17.078;2023-12-20T01:11:52;7.55;;;6.95;;
21402;SDS011;10862;51.886;17.078;2023-12-20T01:14:18;8.73;;;7.93;;
21402;SDS011;10862;51.886;17.078;2023-12-20T01:16:43;7.97;;;7.35;;
21402;SDS011;10862;51.886;17.078;2023-12-20T01:19:09;8.40;;;7.70;;
21402;SDS011;10862;51.886;17.078;2023-12-20T01:21:35;7.68;;;7.13;;
21402;SDS011;10862;51.886;17.078;2023-12-20T01:24:00;8.07;;;7.38;;
21402;SDS011;10862;51.886;17.078;2023-12-20T01:26:26;8.88;;;8.07;;
21402;SDS011;10862;51.886;17.078;2023-12-20T01:28:51;9.20;;;8.40;;
21402;SDS011;10862;51.886;17.078;2023-12-20T01:31:17;8.30;;;7.70;;
21402;SDS011;10862;51.886;17.078;2023-12-20T01:33:42;7.65;;;7.05;;
21402;SDS011;10862;51.886;17.078;2023-12-20T01:36:08;7.78;;;7.20;;
21402;SDS011;10862;51.886;17.078;2023-12-20T01:38:34;7.22;;;6.63;;
21402;SDS011;10862;51.886;17.078;2023-12-20T01:40:59;7.72;;;7.03;;
21402;SDS011;10862;51.886;17.078;2023-12-20T01:43:25;7.95;;;7.25;;
21402;SDS011;10862;51.886;17.078;2023-12-20T01:45:51;8.85;;;8.05;;
21402;SDS011;10862;51.886;17.078;2023-12-20T01:48:17;8.02;;;7.35;;
21402;SDS011;10862;51.886;17.078;2023-12-20T01:50:44;8.13;;;7.47;;
21402;SDS011;10862;51.886;17.078;2023-12-20T01:53:11;7.30;;;6.60;;
21402;SDS011;10862;51.886;17.078;2023-12-20T01:55:39;7.53;;;6.93;;
21402;SDS011;10862;51.886;17.078;2023-12-20T01:58:08;7.65;;;7.05;;
21402;SDS011;10862;51.886;17.078;2023-12-20T02:00:35;8.50;;;7.75;;
21402;SDS011;10862;51.886;17.078;2023-12-20T02:03:01;7.80;;;7.30;;
21402;SDS011;10862;51.886;17.078;2023-12-20T02:05:27;8.20;;;7.60;;
21402;SDS011;10862;51.886;17.078;2023-12-20T02:07:55;7.95;;;7.30;;
21402;SDS011;10862;51.886;17.078;2023-12-20T02:10:20;7.00;;;6.40;;
21402;SDS011;10862;51.886;17.078;2023-12-20T02:12:46;7.93;;;7.28;;
21402;SDS011;10862;51.886;17.078;2023-12-20T02:15:12;8.65;;;7.95;;
21402;SDS011;10862;51.886;17.078;2023-12-20T02:17:38;8.80;;;8.10;;
21402;SDS011;10862;51.886;17.078;2023-12-20T02:20:05;7.75;;;7.25;;
21402;SDS011;10862;51.886;17.078;2023-12-20T02:22:31;7.43;;;6.93;;
21402;SDS011;10862;51.886;17.078;2023-12-20T02:24:56;7.70;;;7.10;;
21402;SDS011;10862;51.886;17.078;2023-12-20T02:27:22;7.43;;;6.90;;
21402;SDS011;10862;51.886;17.078;2023-12-20T02:29:48;7.40;;;6.80;;
21402;SDS011;10862;51.886;17.078;2023-12-20T02:32:15;8.55;;;7.95;;
21402;SDS011;10862;51.886;17.078;2023-12-20T02:34:44;8.35;;;7.70;;
21402;SDS011;10862;51.886;17.078;2023-12-20T02:37:11;8.18;;;7.47;;
21402;SDS011;10862;51.886;17.078;2023-12-20T02:39:36;9.13;;;8.35;;
21402;SDS011;10862;51.886;17.078;2023-12-20T02:42:02;9.00;;;8.40;;
21402;SDS011;10862;51.886;17.078;2023-12-20T02:44:28;7.95;;;7.38;;
21402;SDS011;10862;51.886;17.078;2023-12-20T02:46:53;8.05;;;7.43;;
21402;SDS011;10862;51.886;17.078;2023-12-20T02:49:19;8.70;;;8.00;;
21402;SDS011;10862;51.886;17.078;2023-12-20T02:51:44;8.30;;;7.60;;
21402;SDS011;10862;51.886;17.078;2023-12-20T02:54:11;8.90;;;8.25;;
21402;SDS011;10862;51.886;17.078;2023-12-20T02:56:36;7.95;;;7.28;;
21402;SDS011;10862;51.886;17.078;2023-12-20T02:59:02;8.25;;;7.75;;
21402;SDS011;10862;51.886;17.078;2023-12-20T03:01:31;7.57;;;7.07;;
21402;SDS011;10862;51.886;17.078;2023-12-20T03:03:56;7.97;;;7.45;;
21402;SDS011;10862;51.886;17.078;2023-12-20T03:06:22;8.48;;;7.88;;
21402;SDS011;10862;51.886;17.078;2023-12-20T03:08:48;8.27;;;7.55;;
21402;SDS011;10862;51.886;17.078;2023-12-20T03:11:13;8.50;;;7.90;;
21402;SDS011;10862;51.886;17.078;2023-12-20T03:13:39;8.93;;;8.32;;
21402;SDS011;10862;51.886;17.078;2023-12-20T03:16:10;8.45;;;7.85;;
21402;SDS011;10862;51.886;17.078;2023-12-20T03:18:37;9.43;;;8.73;;
21402;SDS011;10862;51.886;17.078;2023-12-20T03:21:04;8.13;;;7.53;;
21402;SDS011;10862;51.886;17.078;2023-12-20T03:23:30;8.07;;;7.53;;
21402;SDS011;10862;51.886;17.078;2023-12-20T03:25:57;8.50;;;7.80;;
21402;SDS011;10862;51.886;17.078;2023-12-20T03:28:23;8.13;;;7.53;;
21402;SDS011;10862;51.886;17.078;2023-12-20T03:30:49;7.70;;;7.20;;
21402;SDS011;10862;51.886;17.078;2023-12-20T03:33:15;7.32;;;6.82;;
21402;SDS011;10862;51.886;17.078;2023-12-20T03:35:40;7.95;;;7.45;;
21402;SDS011;10862;51.886;17.078;2023-12-20T03:38:06;8.70;;;8.07;;
21402;SDS011;10862;51.886;17.078;2023-12-20T03:40:32;8.10;;;7.53;;
21402;SDS011;10862;51.886;17.078;2023-12-20T03:42:58;8.27;;;7.78;;
21402;SDS011;10862;51.886;17.078;2023-12-20T03:45:24;8.30;;;7.60;;
21402;SDS011;10862;51.886;17.078;2023-12-20T03:47:49;9.15;;;8.45;;
21402;SDS011;10862;51.886;17.078;2023-12-20T03:50:20;9.55;;;8.88;;
21402;SDS011;10862;51.886;17.078;2023-12-20T03:52:46;8.65;;;8.05;;
21402;SDS011;10862;51.886;17.078;2023-12-20T03:55:12;9.18;;;8.63;;
21402;SDS011;10862;51.886;17.078;2023-12-20T03:57:38;7.65;;;7.15;;
21402;SDS011;10862;51.886;17.078;2023-12-20T04:00:03;8.15;;;7.60;;
21402;SDS011;10862;51.886;17.078;2023-12-20T04:02:30;8.23;;;7.72;;
21402;SDS011;10862;51.886;17.078;2023-12-20T04:04:56;9.55;;;8.82;;
21402;SDS011;10862;51.886;17.078;2023-12-20T04:07:21;5.20;;;4.85;;
21402;SDS011;10862;51.886;17.078;2023-12-20T04:09:47;5.20;;;4.80;;
21402;SDS011;10862;51.886;17.078;2023-12-20T04:12:13;6.53;;;6.10;;
21402;SDS011;10862;51.886;17.078;2023-12-20T04:14:38;7.53;;;6.93;;
21402;SDS011;10862;51.886;17.078;2023-12-20T04:17:04;7.43;;;6.95;;
21402;SDS011;10862;51.886;17.078;2023-12-20T04:19:30;6.53;;;6.13;;
21402;SDS011;10862;51.886;17.078;2023-12-20T04:21:56;7.10;;;6.70;;
21402;SDS011;10862;51.886;17.078;2023-12-20T04:24:21;8.70;;;8.10;;
21402;SDS011;10862;51.886;17.078;2023-12-20T04:26:47;7.15;;;6.65;;
21402;SDS011;10862;51.886;17.078;2023-12-20T04:29:13;8.40;;;7.88;;
21402;SDS011;10862;51.886;17.078;2023-12-20T04:31:38;8.52;;;8.02;;
21402;SDS011;10862;51.886;17.078;2023-12-20T04:34:04;9.27;;;8.68;;
21402;SDS011;10862;51.886;17.078;2023-12-20T04:36:30;8.68;;;8.13;;
21402;SDS011;10862;51.886;17.078;2023-12-20T04:38:55;8.38;;;7.85;;
21402;SDS011;10862;51.886;17.078;2023-12-20T04:41:21;6.35;;;5.85;;
21402;SDS011;10862;51.886;17.078;2023-12-20T04:43:46;8.57;;;8.05;;
21402;SDS011;10862;51.886;17.078;2023-12-20T04:46:12;8.77;;;8.18;;
21402;SDS011;10862;51.886;17.078;2023-12-20T04:48:38;9.60;;;8.80;;
21402;SDS011;10862;51.886;17.078;2023-12-20T04:51:03;8.35;;;7.85;;
21402;SDS011;10862;51.886;17.078;2023-12-20T04:53:29;9.75;;;8.95;;
21402;SDS011;10862;51.886;17.078;2023-12-20T04:55:55;9.45;;;8.85;;
21402;SDS011;10862;51.886;17.078;2023-12-20T04:58:21;7.47;;;7.07;;
21402;SDS011;10862;51.886;17.078;2023-12-20T05:00:46;5.35;;;4.85;;
21402;SDS011;10862;51.886;17.078;2023-12-20T05:03:12;6.18;;;5.57;;
21402;SDS011;10862;51.886;17.078;2023-12-20T05:05:37;4.80;;;4.40;;
21402;SDS011;10862;51.886;17.078;2023-12-20T05:08:04;5.10;;;4.70;;
21402;SDS011;10862;51.886;17.078;2023-12-20T05:10:30;7.00;;;6.40;;
21402;SDS011;10862;51.886;17.078;2023-12-20T05:12:55;8.30;;;7.70;;
21402;SDS011;10862;51.886;17.078;2023-12-20T05:15:21;9.10;;;8.48;;
21402;SDS011;10862;51.886;17.078;2023-12-20T05:17:46;9.98;;;9.38;;
21402;SDS011;10862;51.886;17.078;2023-12-20T05:20:12;10.40;;;9.55;;
21402;SDS011;10862;51.886;17.078;2023-12-20T05:22:37;13.52;;;12.55;;
21402;SDS011;10862;51.886;17.078;2023-12-20T05:25:03;14.70;;;13.80;;
21402;SDS011;10862;51.886;17.078;2023-12-20T05:27:29;6.07;;;5.50;;
21402;SDS011;10862;51.886;17.078;2023-12-20T05:29:55;5.93;;;4.93;;
21402;SDS011;10862;51.886;17.078;2023-12-20T05:32:22;4.70;;;4.30;;
21402;SDS011;10862;51.886;17.078;2023-12-20T05:34:48;4.93;;;4.53;;
21402;SDS011;10862;51.886;17.078;2023-12-20T05:37:14;5.65;;;5.25;;
21402;SDS011;10862;51.886;17.078;2023-12-20T05:39:39;6.82;;;6.28;;
21402;SDS011;10862;51.886;17.078;2023-12-20T05:42:05;5.63;;;5.13;;
21402;SDS011;10862;51.886;17.078;2023-12-20T05:44:31;6.32;;;5.93;;
21402;SDS011;10862;51.886;17.078;2023-12-20T05:46:56;6.82;;;6.32;;
21402;SDS011;10862;51.886;17.078;2023-12-20T05:49:22;6.53;;;6.03;;
21402;SDS011;10862;51.886;17.078;2023-12-20T05:51:47;4.75;;;4.35;;
21402;SDS011;10862;51.886;17.078;2023-12-20T05:54:13;4.55;;;3.83;;
21402;SDS011;10862;51.886;17.078;2023-12-20T05:56:38;6.95;;;4.05;;
21402;SDS011;10862;51.886;17.078;2023-12-20T05:59:04;5.30;;;4.20;;
21402;SDS011;10862;51.886;17.078;2023-12-20T06:01:30;9.38;;;4.07;;
21402;SDS011;10862;51.886;17.078;2023-12-20T06:03:55;5.85;;;4.85;;
21402;SDS011;10862;51.886;17.078;2023-12-20T06:06:21;5.38;;;4.68;;
21402;SDS011;10862;51.886;17.078;2023-12-20T06:08:46;6.50;;;5.90;;
21402;SDS011;10862;51.886;17.078;2023-12-20T06:11:12;6.50;;;5.90;;
21402;SDS011;10862;51.886;17.078;2023-12-20T06:13:38;6.72;;;6.03;;
21402;SDS011;10862;51.886;17.078;2023-12-20T06:16:05;5.43;;;4.60;;
21402;SDS011;10862;51.886;17.078;2023-12-20T06:18:32;5.13;;;4.43;;
21402;SDS011;10862;51.886;17.078;2023-12-20T06:20:57;6.13;;;4.03;;
21402;SDS011;10862;51.886;17.078;2023-12-20T06:23:23;5.13;;;4.63;;
21402;SDS011;10862;51.886;17.078;2023-12-20T06:25:48;8.07;;;4.65;;
21402;SDS011;10862;51.886;17.078;2023-12-20T06:28:14;5.80;;;4.50;;
21402;SDS011;10862;51.886;17.078;2023-12-20T06:30:40;7.78;;;4.43;;
21402;SDS011;10862;51.886;17.078;2023-12-20T06:33:06;8.43;;;4.82;;
21402;SDS011;10862;51.886;17.078;2023-12-20T06:35:31;6.45;;;4.72;;
21402;SDS011;10862;51.886;17.078;2023-12-20T06:37:57;18.83;;;7.07;;
21402;SDS011;10862;51.886;17.078;2023-12-20T06:40:23;9.93;;;6.28;;
21402;SDS011;10862;51.886;17.078;2023-12-20T06:42:49;10.13;;;7.10;;
21402;SDS011;10862;51.886;17.078;2023-12-20T06:45:14;21.20;;;10.57;;
21402;SDS011;10862;51.886;17.078;2023-12-20T06:47:40;17.50;;;12.27;;
21402;SDS011;10862;51.886;17.078;2023-12-20T06:50:05;17.20;;;11.30;;
21402;SDS011;10862;51.886;17.078;2023-12-20T06:52:33;14.65;;;9.90;;
21402;SDS011;10862;51.886;17.078;2023-12-20T06:55:00;23.88;;;9.02;;
21402;SDS011;10862;51.886;17.078;2023-12-20T06:57:25;13.05;;;10.30;;
21402;SDS011;10862;51.886;17.078;2023-12-20T06:59:51;14.43;;;9.88;;
21402;SDS011;10862;51.886;17.078;2023-12-20T07:02:17;11.25;;;9.65;;
21402;SDS011;10862;51.886;17.078;2023-12-20T07:04:43;11.10;;;9.63;;
21402;SDS011;10862;51.886;17.078;2023-12-20T07:07:08;10.50;;;9.15;;
21402;SDS011;10862;51.886;17.078;2023-12-20T07:09:34;12.07;;;9.65;;
21402;SDS011;10862;51.886;17.078;2023-12-20T07:11:59;11.07;;;9.98;;
21402;SDS011;10862;51.886;17.078;2023-12-20T07:14:25;10.55;;;9.48;;
21402;SDS011;10862;51.886;17.078;2023-12-20T07:16:51;13.52;;;9.32;;
21402;SDS011;10862;51.886;17.078;2023-12-20T07:19:16;16.27;;;8.07;;
21402;SDS011;10862;51.886;17.078;2023-12-20T07:21:42;10.05;;;8.07;;
21402;SDS011;10862;51.886;17.078;2023-12-20T07:24:08;9.43;;;7.68;;
21402;SDS011;10862;51.886;17.078;2023-12-20T07:26:34;10.27;;;8.50;;
21402;SDS011;10862;51.886;17.078;2023-12-20T07:29:00;14.95;;;8.23;;
21402;SDS011;10862;51.886;17.078;2023-12-20T07:31:25;10.52;;;7.43;;
21402;SDS011;10862;51.886;17.078;2023-12-20T07:33:51;12.35;;;8.07;;
21402;SDS011;10862;51.886;17.078;2023-12-20T07:36:17;11.90;;;9.77;;
21402;SDS011;10862;51.886;17.078;2023-12-20T07:38:44;12.75;;;9.05;;
21402;SDS011;10862;51.886;17.078;2023-12-20T07:41:10;10.52;;;9.48;;
21402;SDS011;10862;51.886;17.078;2023-12-20T07:43:36;11.77;;;9.88;;
21402;SDS011;10862;51.886;17.078;2023-12-20T07:46:07;10.23;;;9.20;;
21402;SDS011;10862;51.886;17.078;2023-12-20T07:48:37;14.15;;;9.75;;
21402;SDS011;10862;51.886;17.078;2023-12-20T07:51:03;12.15;;;9.90;;
21402;SDS011;10862;51.886;17.078;2023-12-20T07:53:29;11.50;;;9.35;;
21402;SDS011;10862;51.886;17.078;2023-12-20T07:55:55;11.38;;;10.18;;
21402;SDS011;10862;51.886;17.078;2023-12-20T07:58:20;12.25;;;11.05;;
21402;SDS011;10862;51.886;17.078;2023-12-20T08:00:47;14.02;;;11.32;;
21402;SDS011;10862;51.886;17.078;2023-12-20T08:03:12;11.73;;;9.38;;
21402;SDS011;10862;51.886;17.078;2023-12-20T08:05:38;13.77;;;11.23;;
21402;SDS011;10862;51.886;17.078;2023-12-20T08:08:06;12.48;;;10.27;;
21402;SDS011;10862;51.886;17.078;2023-12-20T08:10:32;12.90;;;9.85;;
21402;SDS011;10862;51.886;17.078;2023-12-20T08:12:58;13.27;;;9.95;;
21402;SDS011;10862;51.886;17.078;2023-12-20T08:15:23;10.38;;;8.20;;
21402;SDS011;10862;51.886;17.078;2023-12-20T08:17:49;12.52;;;9.07;;
21402;SDS011;10862;51.886;17.078;2023-12-20T08:20:18;9.88;;;8.45;;
21402;SDS011;10862;51.886;17.078;2023-12-20T08:22:44;10.73;;;8.65;;
21402;SDS011;10862;51.886;17.078;2023-12-20T08:25:09;9.15;;;8.20;;
21402;SDS011;10862;51.886;17.078;2023-12-20T08:27:39;10.70;;;7.82;;
21402;SDS011;10862;51.886;17.078;2023-12-20T08:30:06;9.57;;;7.65;;
21402;SDS011;10862;51.886;17.078;2023-12-20T08:32:33;11.35;;;8.23;;
21402;SDS011;10862;51.886;17.078;2023-12-20T08:34:59;9.80;;;8.50;;
21402;SDS011;10862;51.886;17.078;2023-12-20T08:37:25;9.45;;;7.90;;
21402;SDS011;10862;51.886;17.078;2023-12-20T08:39:50;10.48;;;8.13;;
21402;SDS011;10862;51.886;17.078;2023-12-20T08:42:16;12.48;;;8.35;;
21402;SDS011;10862;51.886;17.078;2023-12-20T08:44:42;11.52;;;8.10;;
21402;SDS011;10862;51.886;17.078;2023-12-20T08:47:07;7.95;;;6.88;;
21402;SDS011;10862;51.886;17.078;2023-12-20T08:49:33;12.10;;;7.80;;
21402;SDS011;10862;51.886;17.078;2023-12-20T08:51:59;9.48;;;7.45;;
21402;SDS011;10862;51.886;17.078;2023-12-20T08:54:24;10.18;;;7.50;;
21402;SDS011;10862;51.886;17.078;2023-12-20T08:56:50;10.93;;;7.80;;
21402;SDS011;10862;51.886;17.078;2023-12-20T08:59:15;11.20;;;7.93;;
21402;SDS011;10862;51.886;17.078;2023-12-20T09:01:41;9.13;;;7.20;;
21402;SDS011;10862;51.886;17.078;2023-12-20T09:04:07;7.82;;;6.43;;
21402;SDS011;10862;51.886;17.078;2023-12-20T09:06:32;8.00;;;6.53;;
21402;SDS011;10862;51.886;17.078;2023-12-20T09:08:58;10.52;;;6.75;;
21402;SDS011;10862;51.886;17.078;2023-12-20T09:11:23;9.63;;;7.20;;
21402;SDS011;10862;51.886;17.078;2023-12-20T09:13:49;13.95;;;7.60;;
21402;SDS011;10862;51.886;17.078;2023-12-20T09:16:14;11.95;;;8.68;;
21402;SDS011;10862;51.886;17.078;2023-12-20T09:18:41;10.25;;;7.30;;
21402;SDS011;10862;51.886;17.078;2023-12-20T09:21:07;9.80;;;7.10;;
21402;SDS011;10862;51.886;17.078;2023-12-20T09:23:32;8.23;;;5.90;;
21402;SDS011;10862;51.886;17.078;2023-12-20T09:25:58;10.45;;;6.57;;
21402;SDS011;10862;51.886;17.078;2023-12-20T09:28:24;10.15;;;7.25;;
21402;SDS011;10862;51.886;17.078;2023-12-20T09:30:49;10.65;;;7.22;;
21402;SDS011;10862;51.886;17.078;2023-12-20T09:33:15;10.30;;;7.03;;
21402;SDS011;10862;51.886;17.078;2023-12-20T09:35:41;11.90;;;7.95;;
21402;SDS011;10862;51.886;17.078;2023-12-20T09:38:07;10.23;;;8.88;;
21402;SDS011;10862;51.886;17.078;2023-12-20T09:40:33;11.88;;;7.97;;
21402;SDS011;10862;51.886;17.078;2023-12-20T09:43:04;11.27;;;8.65;;
21402;SDS011;10862;51.886;17.078;2023-12-20T09:45:33;14.32;;;8.35;;
21402;SDS011;10862;51.886;17.078;2023-12-20T09:47:59;10.80;;;9.68;;
21402;SDS011;10862;51.886;17.078;2023-12-20T09:50:25;10.38;;;8.70;;
21402;SDS011;10862;51.886;17.078;2023-12-20T09:52:52;11.23;;;9.68;;
21402;SDS011;10862;51.886;17.078;2023-12-20T09:55:18;9.18;;;8.07;;
21402;SDS011;10862;51.886;17.078;2023-12-20T09:57:45;9.93;;;8.85;;
21402;SDS011;10862;51.886;17.078;2023-12-20T10:00:12;9.82;;;8.82;;
21402;SDS011;10862;51.886;17.078;2023-12-20T10:02:41;9.65;;;8.57;;
21402;SDS011;10862;51.886;17.078;2023-12-20T10:05:22;10.45;;;8.90;;
21402;SDS011;10862;51.886;17.078;2023-12-20T10:07:54;9.77;;;8.75;;
21402;SDS011;10862;51.886;17.078;2023-12-20T10:10:19;13.82;;;8.90;;
21402;SDS011;10862;51.886;17.078;2023-12-20T10:13:01;9.30;;;8.15;;
21402;SDS011;10862;51.886;17.078;2023-12-20T10:15:28;9.15;;;7.88;;
21402;SDS011;10862;51.886;17.078;2023-12-20T10:17:54;9.00;;;7.22;;
21402;SDS011;10862;51.886;17.078;2023-12-20T10:20:20;8.80;;;7.88;;
21402;SDS011;10862;51.886;17.078;2023-12-20T10:22:46;12.02;;;7.05;;
21402;SDS011;10862;51.886;17.078;2023-12-20T10:25:12;8.90;;;7.47;;
21402;SDS011;10862;51.886;17.078;2023-12-20T10:27:38;8.23;;;6.80;;
21402;SDS011;10862;51.886;17.078;2023-12-20T10:30:03;7.28;;;6.20;;
21402;SDS011;10862;51.886;17.078;2023-12-20T10:32:31;7.70;;;6.07;;
21402;SDS011;10862;51.886;17.078;2023-12-20T10:34:56;8.43;;;6.32;;
21402;SDS011;10862;51.886;17.078;2023-12-20T10:37:24;9.32;;;7.00;;
21402;SDS011;10862;51.886;17.078;2023-12-20T10:39:50;7.50;;;5.60;;
21402;SDS011;10862;51.886;17.078;2023-12-20T10:42:22;8.90;;;5.88;;
21402;SDS011;10862;51.886;17.078;2023-12-20T10:44:51;8.98;;;6.50;;
21402;SDS011;10862;51.886;17.078;2023-12-20T10:47:19;8.32;;;6.88;;
21402;SDS011;10862;51.886;17.078;2023-12-20T10:49:45;8.68;;;7.13;;
21402;SDS011;10862;51.886;17.078;2023-12-20T10:52:12;9.00;;;6.70;;
21402;SDS011;10862;51.886;17.078;2023-12-20T10:54:39;9.05;;;7.68;;
21402;SDS011;10862;51.886;17.078;2023-12-20T10:57:05;7.70;;;6.88;;
21402;SDS011;10862;51.886;17.078;2023-12-20T10:59:32;8.88;;;8.02;;
21402;SDS011;10862;51.886;17.078;2023-12-20T11:01:59;9.30;;;8.07;;
21402;SDS011;10862;51.886;17.078;2023-12-20T11:04:31;7.43;;;6.72;;
21402;SDS011;10862;51.886;17.078;2023-12-20T11:07:16;9.35;;;8.15;;
21402;SDS011;10862;51.886;17.078;2023-12-20T11:11:03;28.45;;;25.95;;
21402;SDS011;10862;51.886;17.078;2023-12-20T11:13:58;25.67;;;23.67;;
21402;SDS011;10862;51.886;17.078;2023-12-20T11:16:33;30.87;;;25.83;;
21402;SDS011;10862;51.886;17.078;2023-12-20T11:19:07;18.50;;;17.00;;
21402;SDS011;10862;51.886;17.078;2023-12-20T11:21:32;20.17;;;18.40;;
21402;SDS011;10862;51.886;17.078;2023-12-20T11:23:59;27.67;;;24.23;;
21402;SDS011;10862;51.886;17.078;2023-12-20T11:26:28;26.10;;;23.83;;
21402;SDS011;10862;51.886;17.078;2023-12-20T11:28:54;27.73;;;24.97;;
21402;SDS011;10862;51.886;17.078;2023-12-20T11:31:41;37.23;;;27.63;;
21402;SDS011;10862;51.886;17.078;2023-12-20T11:34:13;26.57;;;24.53;;
21402;SDS011;10862;51.886;17.078;2023-12-20T11:36:42;31.93;;;25.33;;
21402;SDS011;10862;51.886;17.078;2023-12-20T11:39:08;26.57;;;24.10;;
21402;SDS011;10862;51.886;17.078;2023-12-20T11:41:35;26.30;;;23.50;;
21402;SDS011;10862;51.886;17.078;2023-12-20T11:44:01;28.13;;;23.77;;
21402;SDS011;10862;51.886;17.078;2023-12-20T11:46:29;34.63;;;28.90;;
21402;SDS011;10862;51.886;17.078;2023-12-20T11:48:56;41.07;;;27.23;;
21402;SDS011;10862;51.886;17.078;2023-12-20T11:51:22;25.90;;;24.00;;
21402;SDS011;10862;51.886;17.078;2023-12-20T11:53:51;27.83;;;25.27;;
21402;SDS011;10862;51.886;17.078;2023-12-20T11:56:18;28.40;;;25.70;;
21402;SDS011;10862;51.886;17.078;2023-12-20T11:58:44;31.87;;;26.73;;
21402;SDS011;10862;51.886;17.078;2023-12-20T12:01:09;30.03;;;27.10;;
21402;SDS011;10862;51.886;17.078;2023-12-20T12:03:35;27.90;;;24.57;;
21402;SDS011;10862;51.886;17.078;2023-12-20T12:06:01;28.17;;;25.23;;
21402;SDS011;10862;51.886;17.078;2023-12-20T12:08:29;30.97;;;27.10;;
21402;SDS011;10862;51.886;17.078;2023-12-20T12:10:55;27.50;;;24.77;;
21402;SDS011;10862;51.886;17.078;2023-12-20T12:13:21;24.60;;;22.03;;
21402;SDS011;10862;51.886;17.078;2023-12-20T12:15:47;21.37;;;19.80;;
21402;SDS011;10862;51.886;17.078;2023-12-20T12:18:15;23.23;;;20.97;;
21402;SDS011;10862;51.886;17.078;2023-12-20T12:20:41;22.13;;;20.27;;
21402;SDS011;10862;51.886;17.078;2023-12-20T12:23:07;30.40;;;22.70;;
21402;SDS011;10862;51.886;17.078;2023-12-20T12:25:35;27.77;;;24.33;;
21402;SDS011;10862;51.886;17.078;2023-12-20T12:28:02;29.97;;;25.00;;
21402;SDS011;10862;51.886;17.078;2023-12-20T12:30:28;25.43;;;22.50;;
21402;SDS011;10862;51.886;17.078;2023-12-20T12:32:54;23.90;;;21.77;;
21402;SDS011;10862;51.886;17.078;2023-12-20T12:35:21;26.27;;;23.90;;
21402;SDS011;10862;51.886;17.078;2023-12-20T12:37:47;26.87;;;24.07;;
21402;SDS011;10862;51.886;17.078;2023-12-20T12:40:13;29.13;;;26.00;;
21402;SDS011;10862;51.886;17.078;2023-12-20T12:42:40;31.60;;;26.50;;
21402;SDS011;10862;51.886;17.078;2023-12-20T12:45:07;24.93;;;22.53;;
21402;SDS011;10862;51.886;17.078;2023-12-20T12:47:33;23.50;;;20.87;;
21402;SDS011;10862;51.886;17.078;2023-12-20T12:50:00;32.33;;;28.50;;
21402;SDS011;10862;51.886;17.078;2023-12-20T12:52:25;49.23;;;36.67;;
21402;SDS011;10862;51.886;17.078;2023-12-20T12:54:52;33.90;;;28.33;;
21402;SDS011;10862;51.886;17.078;2023-12-20T12:57:18;46.33;;;34.33;;
21402;SDS011;10862;51.886;17.078;2023-12-20T12:59:44;29.10;;;26.27;;
21402;SDS011;10862;51.886;17.078;2023-12-20T13:02:14;66.97;;;54.07;;
21402;SDS011;10862;51.886;17.078;2023-12-20T13:04:40;48.97;;;39.17;;
21402;SDS011;10862;51.886;17.078;2023-12-20T13:07:07;42.33;;;32.47;;
21402;SDS011;10862;51.886;17.078;2023-12-20T13:09:35;34.57;;;31.20;;
21402;SDS011;10862;51.886;17.078;2023-12-20T13:12:01;30.03;;;27.33;;
21402;SDS011;10862;51.886;17.078;2023-12-20T13:14:28;31.07;;;27.90;;
21402;SDS011;10862;51.886;17.078;2023-12-20T13:16:55;60.87;;;48.03;;
21402;SDS011;10862;51.886;17.078;2023-12-20T13:19:21;62.87;;;42.20;;
21402;SDS011;10862;51.886;17.078;2023-12-20T13:21:47;43.87;;;36.47;;
21402;SDS011;10862;51.886;17.078;2023-12-20T13:24:13;48.70;;;33.00;;
21402;SDS011;10862;51.886;17.078;2023-12-20T13:26:39;40.17;;;32.87;;
21402;SDS011;10862;51.886;17.078;2023-12-20T13:29:06;55.40;;;39.90;;
21402;SDS011;10862;51.886;17.078;2023-12-20T13:31:31;53.13;;;39.97;;
21402;SDS011;10862;51.886;17.078;2023-12-20T13:33:57;53.13;;;32.67;;
21402;SDS011;10862;51.886;17.078;2023-12-20T13:36:23;43.40;;;29.93;;
21402;SDS011;10862;51.886;17.078;2023-12-20T13:38:48;27.10;;;21.80;;
21402;SDS011;10862;51.886;17.078;2023-12-20T13:41:14;36.43;;;26.50;;
21402;SDS011;10862;51.886;17.078;2023-12-20T13:43:39;48.23;;;30.37;;
21402;SDS011;10862;51.886;17.078;2023-12-20T13:46:05;49.07;;;29.80;;
21402;SDS011;10862;51.886;17.078;2023-12-20T13:48:31;37.10;;;27.93;;
21402;SDS011;10862;51.886;17.078;2023-12-20T13:50:56;25.53;;;22.43;;
21402;SDS011;10862;51.886;17.078;2023-12-20T13:53:22;51.03;;;29.67;;
21402;SDS011;10862;51.886;17.078;2023-12-20T13:55:48;51.07;;;28.27;;
21402;SDS011;10862;51.886;17.078;2023-12-20T13:58:14;50.77;;;29.23;;
21402;SDS011;10862;51.886;17.078;2023-12-20T14:00:40;46.23;;;29.33;;
21402;SDS011;10862;51.886;17.078;2023-12-20T14:03:06;46.57;;;26.10;;
21402;SDS011;10862;51.886;17.078;2023-12-20T14:05:32;39.30;;;25.97;;
21402;SDS011;10862;51.886;17.078;2023-12-20T14:07:58;45.63;;;28.27;;
21402;SDS011;10862;51.886;17.078;2023-12-20T14:10:24;48.57;;;29.00;;
21402;SDS011;10862;51.886;17.078;2023-12-20T14:12:53;65.20;;;35.40;;
21402;SDS011;10862;51.886;17.078;2023-12-20T14:15:19;409.67;;;154.53;;
21402;SDS011;10862;51.886;17.078;2023-12-20T14:17:44;88.20;;;56.47;;
21402;SDS011;10862;51.886;17.078;2023-12-20T14:20:10;167.07;;;68.13;;
21402;SDS011;10862;51.886;17.078;2023-12-20T14:22:38;146.00;;;64.87;;